グラスゴー の空港の天気 - METARとTAF

グラスゴー国際空港 ( EGPF / GLA ) - イギリス グラスゴー
飛行場実況気象(Metar)
観測時間10/18 08:50 BST (10/18 07:50 UTC)
風向・風速東 3m/s
視程10km以上
天気現象
なし
気温8℃
湿度93%
気圧995hPa
METAREGPF 180750Z AUTO 08005KT 9999 NCD 08/07 Q0995
過去の天気等 Google飛行場航空写真 Wunderground天気予報

過去48時間のMETAR

飛行場予報(TAF)
発表時間: 10/18 05:56 BST (10/18 04:56 UTC)
予報対象時間: 18日7時 BST ~ 19日7時 BST
風向・風速東 4m/s
視程10km以上
少しの雲 雲底高度 610m
18日11時 BST ~ 18日21時 BST に 確率 30% で一時的に
視程6000m
天気現象しゅう雨
18日14時 BST ~ 18日17時 BST に徐々に
風向・風速北 5m/s
19日2時 BST ~ 19日7時 BST に 確率 40% で一時的に
視程6000m
天気現象しゅう雨
全天の8割程度の雲 雲底高度 430m
TAF EGPF 180456Z 1806/1906 10007KT 9999 FEW020
PROB30 TEMPO 1810/1820 6000 SHRA
BECMG 1813/1816 01010KT
PROB40 TEMPO 1901/1906 6000 SHRA BKN014